Terminal Aerodrome Forecast
Issued by NWS Louisville, KY

Home | Current Version | Previous Version | Text Only | Print | Product List | Glossary On
Versions: 1 2 3 4 5 6 7 8 9 10 11 12 13 14 15 16
000
FTUS43 KLMK 261700
TAFBWG
TAF
KBWG 261720Z 2618/2718 VRB03KT P6SM SCT250
     FM270000 27004KT 6SM -RA BR OVC035
     FM270500 29005KT 4SM -SN BR OVC025
     FM271100 30007KT P6SM SCT020 BKN070=

USA.gov is the U.S. government's official web portal to all federal, state and local government web resources and services.